Time;durP1;ratioP1;P1;durP2;ratioP2;P2;SDS_P1;SDS_P2;PMS_P1;PMS_P2;Temp;Humidity;BMP_temperature;BMP_pressure;BME280_temperature;BME280_humidity;BME280_pressure;Samples;Min_cycle;Max_cycle;Signal;HPM_P1;HPM_P2
2021/03/22 00:01:44;;;;;;;62.93;29.40;;;2.80;99.90;;;;;;5033433;28;20187;-94
2021/03/22 00:04:10;;;;;;;52.80;27.80;;;0.50;99.90;;;;;;5033297;28;20247;-93
2021/03/22 00:06:35;;;;;;;52.17;25.20;;;3.50;99.90;;;;;;5016581;28;20275;-93
2021/03/22 00:09:02;;;;;;;46.80;25.60;;;3.30;99.90;;;;;;5034507;28;20181;-92
2021/03/22 00:11:28;;;;;;;39.33;21.87;;;0.50;99.90;;;;;;5032875;28;20195;-94
2021/03/22 00:13:53;;;;;;;39.93;21.30;;;2.00;99.90;;;;;;5016316;28;20181;-93
2021/03/22 00:16:19;;;;;;;46.87;29.17;;;2.20;99.90;;;;;;5032199;28;20272;-94
2021/03/22 00:18:45;;;;;;;41.70;23.13;;;2.70;99.90;;;;;;5033071;28;20186;-93
2021/03/22 00:21:13;;;;;;;42.07;20.53;;;1.50;99.90;;;;;;5032959;28;20652;-95
2021/03/22 00:23:39;;;;;;;43.37;24.83;;;0.40;99.90;;;;;;5032493;28;20177;-93
2021/03/22 00:26:06;;;;;;;43.90;24.47;;;2.90;99.90;;;;;;5033663;28;20177;-94
2021/03/22 00:28:38;;;;;;;43.27;25.47;;;2.80;99.90;;;;;;5033345;28;20180;-93
2021/03/22 00:31:05;;;;;;;41.13;21.13;;;0.60;99.90;;;;;;5016910;28;20187;-94
2021/03/22 00:33:31;;;;;;;46.70;24.07;;;1.40;99.90;;;;;;5033340;28;20176;-93
2021/03/22 00:35:57;;;;;;;44.57;21.33;;;0.60;99.90;;;;;;5032319;28;20195;-93
2021/03/22 00:38:22;;;;;;;42.37;23.07;;;-1.10;99.90;;;;;;5032883;28;20212;-92
2021/03/22 00:40:48;;;;;;;40.27;20.83;;;2.70;99.90;;;;;;5018607;28;20184;-93
2021/03/22 00:43:15;;;;;;;47.97;23.43;;;2.30;99.90;;;;;;5019375;28;20522;-94
2021/03/22 00:45:40;;;;;;;39.17;20.27;;;2.60;99.90;;;;;;5035267;28;20188;-93
2021/03/22 00:48:07;;;;;;;34.87;17.23;;;2.30;99.90;;;;;;5036089;28;20244;-93
2021/03/22 00:50:37;;;;;;;32.50;18.10;;;0.60;99.90;;;;;;5018932;28;20184;-92
2021/03/22 00:53:05;;;;;;;33.37;18.73;;;2.60;99.90;;;;;;5035951;28;20192;-93
2021/03/22 00:55:31;;;;;;;36.03;16.83;;;2.10;99.90;;;;;;5035820;28;20180;-93
2021/03/22 00:57:57;;;;;;;41.87;17.50;;;2.00;99.90;;;;;;5035831;28;20323;-94
2021/03/22 01:00:30;;;;;;;32.87;16.20;;;2.90;99.90;;;;;;5036772;28;20662;-92
2021/03/22 01:02:57;;;;;;;26.70;14.60;;;-0.90;99.90;;;;;;5036059;28;20227;-94
2021/03/22 01:05:24;;;;;;;29.20;15.73;;;0.60;99.90;;;;;;5019336;28;20236;-94
2021/03/22 01:07:51;;;;;;;27.07;15.33;;;2.50;99.90;;;;;;5036960;28;20191;-94
2021/03/22 01:10:42;;;;;;;29.70;15.13;;;3.00;99.90;;;;;;5037397;28;20223;-94
2021/03/22 01:13:12;;;;;;;40.97;18.87;;;0.40;99.90;;;;;;5035553;28;20185;-94
2021/03/22 01:15:38;;;;;;;38.37;16.47;;;2.60;99.90;;;;;;5035366;28;20271;-93
2021/03/22 01:18:04;;;;;;;33.70;16.50;;;2.90;99.90;;;;;;5036266;28;20304;-95
2021/03/22 01:20:40;;;;;;;29.93;15.77;;;0.30;99.90;;;;;;5035907;28;20215;-93
2021/03/22 01:23:05;;;;;;;32.27;15.97;;;0.80;99.90;;;;;;5036560;28;20640;-93
2021/03/22 01:25:32;;;;;;;32.83;15.33;;;0.30;99.90;;;;;;5037086;28;20180;-93
2021/03/22 01:27:57;;;;;;;39.50;16.83;;;2.30;99.90;;;;;;5003731;28;20191;-94
2021/03/22 01:30:34;;;;;;;32.37;15.10;;;3.10;99.90;;;;;;5019365;28;20187;-91
2021/03/22 01:33:00;;;;;;;30.47;14.07;;;2.40;99.90;;;;;;5036398;28;20188;-93
2021/03/22 01:35:26;;;;;;;26.57;13.80;;;0.20;99.90;;;;;;5035804;28;20533;-93
2021/03/22 01:37:52;;;;;;;29.40;14.20;;;3.20;99.90;;;;;;5036855;28;20262;-94
2021/03/22 01:40:41;;;;;;;27.40;13.60;;;2.50;99.90;;;;;;5036628;28;20188;-93
2021/03/22 01:43:12;;;;;;;21.07;12.13;;;0.20;99.90;;;;;;5036881;28;20306;-93
2021/03/22 01:45:37;;;;;;;22.40;12.03;;;0.40;99.90;;;;;;5036777;28;20155;-93
2021/03/22 01:48:03;;;;;;;26.30;12.60;;;0.20;99.90;;;;;;5023928;28;20242;-95
2021/03/22 01:50:31;;;;;;;25.10;12.20;;;0.10;99.90;;;;;;5005510;28;20632;-94
2021/03/22 01:53:00;;;;;;;23.77;12.33;;;1.00;99.90;;;;;;5036820;28;20266;-93
2021/03/22 01:55:27;;;;;;;22.43;12.63;;;1.70;99.90;;;;;;5038116;28;20180;-90
2021/03/22 01:57:52;;;;;;;25.83;12.83;;;2.60;99.90;;;;;;5050968;28;20209;-90
2021/03/22 02:00:27;;;;;;;24.57;12.60;;;1.70;99.90;;;;;;5034029;28;20180;-91
2021/03/22 02:02:59;;;;;;;29.03;14.97;;;0.00;99.90;;;;;;5049740;28;20193;-90
2021/03/22 02:05:28;;;;;;;22.03;12.40;;;0.90;99.90;;;;;;5047575;28;20251;-93
2021/03/22 02:08:12;;;;;;;24.17;12.37;;;2.00;99.90;;;;;;5037258;28;20180;-94
2021/03/22 02:10:39;;;;;;;25.63;11.00;;;3.00;99.90;;;;;;5037848;28;20256;-95
2021/03/22 02:13:05;;;;;;;25.33;12.97;;;0.30;99.90;;;;;;5054130;28;20235;-90
2021/03/22 02:15:32;;;;;;;22.27;11.63;;;0.90;99.90;;;;;;5049742;28;20175;-90
2021/03/22 02:18:05;;;;;;;20.63;11.23;;;2.10;99.90;;;;;;5051573;28;20208;-90
2021/03/22 02:21:08;;;;;;;22.97;9.87;;;-0.30;99.90;;;;;;5049285;28;20214;-93
2021/03/22 02:23:39;;;;;;;23.40;10.73;;;-0.30;99.90;;;;;;5033956;28;20190;-94
2021/03/22 02:26:11;;;;;;;21.60;10.10;;;-0.30;99.90;;;;;;5035633;28;20166;-94
2021/03/22 02:29:10;;;;;;;18.13;10.67;;;-0.40;99.90;;;;;;5035336;28;20198;-95
2021/03/22 02:32:03;;;;;;;19.73;10.53;;;-0.50;99.90;;;;;;5034682;28;20531;-94
2021/03/22 02:34:48;;;;;;;20.13;8.27;;;-0.50;99.90;;;;;;5034453;28;20188;-95
2021/03/22 02:37:29;;;;;;;19.00;9.40;;;-0.50;99.90;;;;;;5035569;28;20295;-94
2021/03/22 02:40:16;;;;;;;14.93;9.10;;;1.10;99.90;;;;;;5034358;28;20259;-96
2021/03/22 02:42:45;;;;;;;17.70;8.73;;;-0.60;99.90;;;;;;5034326;28;20530;-93
2021/03/22 02:45:22;;;;;;;18.13;8.37;;;1.80;99.90;;;;;;5035707;28;20169;-95
2021/03/22 02:47:48;;;;;;;20.07;8.70;;;-0.60;99.90;;;;;;5035338;28;20260;-95
2021/03/22 02:50:22;;;;;;;15.87;8.37;;;1.20;99.90;;;;;;5034354;28;20220;-95
2021/03/22 02:53:21;;;;;;;19.63;8.30;;;1.50;99.90;;;;;;5035223;28;20253;-95
2021/03/22 02:55:54;;;;;;;21.03;9.37;;;-0.70;99.90;;;;;;5033886;28;20186;-94
2021/03/22 02:58:25;;;;;;;25.10;10.03;;;-0.70;99.90;;;;;;5035309;28;20207;-94
2021/03/22 03:01:10;;;;;;;16.50;8.80;;;1.80;99.90;;;;;;5033800;28;20695;-96
2021/03/22 03:03:37;;;;;;;16.50;7.50;;;2.00;99.90;;;;;;5033949;28;20228;-94
2021/03/22 03:06:04;;;;;;;20.30;8.33;;;1.50;99.90;;;;;;5017659;28;20192;-95
2021/03/22 03:08:34;;;;;;;14.03;7.53;;;-0.80;99.90;;;;;;5017282;28;20536;-95
2021/03/22 03:10:59;;;;;;;19.20;8.37;;;0.40;99.90;;;;;;5034080;28;20176;-93
2021/03/22 03:13:25;;;;;;;17.03;8.80;;;1.50;99.90;;;;;;5016580;28;20187;-94
2021/03/22 03:15:51;;;;;;;15.33;8.93;;;-0.80;99.90;;;;;;5032865;28;20246;-94
2021/03/22 03:18:17;;;;;;;16.97;7.73;;;-0.80;99.90;;;;;;5016692;28;20316;-94
2021/03/22 03:20:43;;;;;;;17.07;7.80;;;1.70;99.90;;;;;;5034429;28;20179;-96
2021/03/22 03:23:08;;;;;;;17.73;8.00;;;-0.20;99.90;;;;;;5033346;28;20190;-96
2021/03/22 03:25:34;;;;;;;18.77;7.43;;;-0.40;99.90;;;;;;5033323;28;20712;-96
2021/03/22 03:28:00;;;;;;;17.43;6.63;;;1.60;99.90;;;;;;5033137;28;20251;-95
2021/03/22 03:30:28;;;;;;;14.90;6.53;;;1.50;99.90;;;;;;5034600;28;20540;-96
2021/03/22 03:32:55;;;;;;;13.27;6.67;;;-1.00;99.90;;;;;;5033178;28;20276;-94
2021/03/22 03:35:26;;;;;;;13.17;7.20;;;2.00;99.90;;;;;;5033624;28;20182;-95
2021/03/22 03:37:52;;;;;;;17.40;7.33;;;-1.00;99.90;;;;;;5033944;28;20228;-96
2021/03/22 03:40:37;;;;;;;19.60;7.83;;;-0.70;99.90;;;;;;5033546;28;20283;-96
2021/03/22 03:43:04;;;;;;;16.77;7.07;;;1.80;99.90;;;;;;5034134;28;20199;-94
2021/03/22 03:45:34;;;;;;;16.20;7.57;;;1.40;99.90;;;;;;5034337;28;20180;-94
2021/03/22 03:48:00;;;;;;;17.00;7.30;;;1.80;99.90;;;;;;5033864;28;20218;-95
2021/03/22 03:50:28;;;;;;;16.10;7.77;;;1.60;99.90;;;;;;5033260;28;20182;-93
2021/03/22 03:52:55;;;;;;;14.50;6.63;;;1.60;99.90;;;;;;5033105;28;20618;-94
2021/03/22 03:55:23;;;;;;;16.27;7.23;;;1.00;99.90;;;;;;5033452;28;20217;-94
2021/03/22 03:57:53;;;;;;;15.00;5.90;;;-1.50;99.90;;;;;;5033736;28;20287;-94
2021/03/22 04:00:24;;;;;;;10.40;5.47;;;0.30;99.90;;;;;;5035218;28;20184;-93
2021/03/22 04:02:51;;;;;;;12.23;6.67;;;-1.40;99.90;;;;;;5033092;28;20262;-94
2021/03/22 04:05:17;;;;;;;10.53;4.60;;;0.90;99.90;;;;;;5020962;28;20688;-93
2021/03/22 04:07:43;;;;;;;11.37;5.47;;;-1.50;99.90;;;;;;5035765;28;20599;-93
2021/03/22 04:10:09;;;;;;;18.70;4.87;;;1.20;99.90;;;;;;5037136;28;20187;-94
2021/03/22 04:12:37;;;;;;;10.73;5.07;;;-1.60;99.90;;;;;;5038324;28;20541;-96
2021/03/22 04:15:09;;;;;;;10.77;4.60;;;1.20;99.90;;;;;;5039478;28;20907;-95
2021/03/22 04:17:35;;;;;;;11.93;4.73;;;-1.70;99.90;;;;;;5041287;28;20215;-94
2021/03/22 04:20:02;;;;;;;10.70;4.83;;;0.20;99.90;;;;;;5042879;28;20183;-95
2021/03/22 04:22:28;;;;;;;12.07;5.43;;;-1.80;99.90;;;;;;5038490;28;20182;-95
2021/03/22 04:24:53;;;;;;;11.63;4.70;;;0.80;99.90;;;;;;5037828;28;20531;-95
2021/03/22 04:27:19;;;;;;;8.33;3.73;;;-0.40;99.90;;;;;;5039317;28;20215;-94
2021/03/22 04:29:48;;;;;;;7.97;4.07;;;-1.60;99.90;;;;;;5038532;28;20263;-96
2021/03/22 04:32:13;;;;;;;6.73;3.57;;;0.70;99.90;;;;;;5037389;28;20188;-93
2021/03/22 04:34:39;;;;;;;8.17;3.43;;;-0.20;99.90;;;;;;5037638;28;20181;-94
2021/03/22 04:37:05;;;;;;;11.97;4.13;;;-0.20;99.90;;;;;;5037825;28;20212;-95
2021/03/22 04:39:31;;;;;;;10.33;4.70;;;-2.00;99.90;;;;;;5020797;28;20187;-95
2021/03/22 04:41:57;;;;;;;15.63;4.40;;;0.60;99.90;;;;;;5036730;28;20179;-93
2021/03/22 04:44:23;;;;;;;10.83;4.37;;;-0.10;99.90;;;;;;5037403;28;20177;-94
2021/03/22 04:46:48;;;;;;;9.63;3.93;;;-0.50;99.90;;;;;;5036026;28;20283;-95
2021/03/22 04:49:14;;;;;;;10.37;4.73;;;0.40;99.90;;;;;;5035208;28;20183;-91
2021/03/22 04:51:40;;;;;;;19.13;6.90;;;-0.90;99.90;;;;;;5050505;28;20200;-96
2021/03/22 04:54:07;;;;;;;13.30;5.00;;;-0.50;99.90;;;;;;5045055;28;20189;-94
2021/03/22 04:56:33;;;;;;;9.40;4.67;;;-2.10;99.90;;;;;;5050371;28;20193;-94
2021/03/22 04:58:59;;;;;;;13.97;4.93;;;-0.40;99.90;;;;;;5053915;28;20183;-95
2021/03/22 05:01:25;;;;;;;8.60;3.80;;;0.90;99.90;;;;;;5027739;28;20193;-95
2021/03/22 05:03:51;;;;;;;7.77;3.90;;;-2.20;99.90;;;;;;5033812;28;20228;-94
2021/03/22 05:06:17;;;;;;;15.63;4.47;;;-0.70;99.90;;;;;;5031162;28;20251;-96
2021/03/22 05:08:43;;;;;;;7.47;4.30;;;0.40;99.90;;;;;;5032235;28;20193;-95
2021/03/22 05:11:08;;;;;;;9.83;5.13;;;-0.60;99.90;;;;;;5031588;28;20193;-95
2021/03/22 05:13:34;;;;;;;8.80;4.70;;;-1.10;99.90;;;;;;5040728;28;20202;-96
2021/03/22 05:16:00;;;;;;;12.70;4.57;;;0.20;99.90;;;;;;5036932;28;20190;-96
2021/03/22 05:18:30;;;;;;;7.83;3.87;;;0.00;99.90;;;;;;5039982;28;20204;-95
2021/03/22 05:21:02;;;;;;;16.40;4.70;;;-2.10;99.90;;;;;;5048213;28;20209;-96
2021/03/22 05:23:28;;;;;;;15.80;4.40;;;-2.00;99.90;;;;;;5056288;28;20182;-96
2021/03/22 05:25:55;;;;;;;9.20;4.20;;;-0.30;99.90;;;;;;5036752;28;20208;-94
2021/03/22 05:28:23;;;;;;;9.63;4.10;;;-0.30;99.90;;;;;;5037493;28;20194;-94
2021/03/22 05:30:49;;;;;;;15.27;5.13;;;0.20;99.90;;;;;;5022664;28;20231;-96
2021/03/22 05:33:16;;;;;;;13.67;5.03;;;0.60;99.90;;;;;;5039716;28;20188;-95
2021/03/22 05:35:47;;;;;;;14.80;4.83;;;0.60;99.90;;;;;;5048541;28;20178;-95
2021/03/22 05:38:13;;;;;;;10.57;3.83;;;0.80;99.90;;;;;;5063706;28;20201;-96
2021/03/22 05:40:54;;;;;;;10.63;3.77;;;-3.30;99.90;;;;;;5043291;28;20187;-95
2021/03/22 05:43:46;;;;;;;10.57;3.53;;;-1.50;99.90;;;;;;5041924;28;20191;-95
2021/03/22 05:46:30;;;;;;;9.53;3.60;;;-1.30;99.90;;;;;;5040090;28;20169;-95
2021/03/22 05:49:25;;;;;;;7.77;3.40;;;-0.90;99.90;;;;;;5057824;28;20190;-91
2021/03/22 05:52:22;;;;;;;8.50;3.73;;;-1.90;99.90;;;;;;5052388;28;20578;-95
2021/03/22 05:55:02;;;;;;;9.87;4.20;;;-1.80;99.90;;;;;;5041629;28;20182;-96
2021/03/22 05:57:31;;;;;;;;;;;-1.70;99.90;;;;;;5060258;28;20131;-96
2021/03/22 06:00:00;;;;;;;;;;;-1.60;99.90;;;;;;5047396;28;19927;-90
2021/03/22 06:02:25;;;;;;;;;;;-1.50;99.90;;;;;;5037975;28;19912;-95
2021/03/22 06:04:52;;;;;;;;;;;1.20;99.90;;;;;;5035665;28;19917;-95
2021/03/22 06:07:25;;;;;;;14.80;5.80;;;-0.80;99.90;;;;;;5038952;28;20823;-94
2021/03/22 06:10:03;;;;;;;9.63;4.40;;;0.90;99.90;;;;;;5038565;28;20741;-96
2021/03/22 06:12:31;;;;;;;11.80;4.87;;;0.20;99.90;;;;;;5030580;28;20195;-94
2021/03/22 06:15:20;;;;;;;10.40;4.60;;;-0.60;99.90;;;;;;5042611;28;20189;-93
2021/03/22 06:18:11;;;;;;;8.37;3.73;;;-1.60;99.90;;;;;;5050692;28;20254;-95
2021/03/22 06:20:39;;;;;;;9.57;4.17;;;-1.60;99.90;;;;;;5047483;28;20661;-94
2021/03/22 06:23:22;;;;;;;8.93;4.47;;;0.20;99.90;;;;;;5035607;28;20319;-91
2021/03/22 06:25:48;;;;;;;19.70;7.30;;;-1.50;99.90;;;;;;5035465;28;20682;-95
2021/03/22 06:28:14;;;;;;;11.93;4.60;;;-1.40;99.90;;;;;;5037286;28;20234;-95
2021/03/22 06:30:53;;;;;;;12.63;5.47;;;0.60;99.90;;;;;;5031810;28;20181;-95
2021/03/22 06:33:27;;;;;;;5.93;3.47;;;1.50;99.90;;;;;;5022692;28;20188;-94
2021/03/22 06:35:56;;;;;;;7.93;3.70;;;-1.30;99.90;;;;;;5034507;28;20185;-95
2021/03/22 06:38:22;;;;;;;10.83;4.87;;;0.70;99.90;;;;;;5049033;28;20226;-96
2021/03/22 06:40:47;;;;;;;12.20;3.60;;;0.50;99.90;;;;;;5049998;28;20203;-94
2021/03/22 06:43:18;;;;;;;8.83;4.40;;;1.60;99.90;;;;;;5050029;28;20666;-95
2021/03/22 06:45:46;;;;;;;18.43;5.80;;;-0.80;99.90;;;;;;5050328;28;20639;-95
2021/03/22 06:48:23;;;;;;;11.03;4.50;;;2.10;99.90;;;;;;5036895;28;20295;-95
2021/03/22 06:50:52;;;;;;;15.57;6.53;;;-0.90;99.90;;;;;;5049549;28;20192;-93
2021/03/22 06:53:56;;;;;;;12.57;6.07;;;-0.60;99.90;;;;;;5035577;28;20183;-95
2021/03/22 06:56:36;;;;;;;13.17;6.23;;;1.80;99.90;;;;;;5003824;28;20188;-94
2021/03/22 06:59:21;;;;;;;17.30;6.63;;;-1.00;99.90;;;;;;5050826;28;20192;-94
2021/03/22 07:01:50;;;;;;;23.93;6.50;;;1.70;99.90;;;;;;5051766;28;20179;-95
2021/03/22 07:04:31;;;;;;;21.77;6.87;;;2.00;99.90;;;;;;5035942;28;20506;-94
2021/03/22 07:07:21;;;;;;;23.47;6.30;;;-0.20;99.90;;;;;;5036046;28;20641;-95
2021/03/22 07:10:00;;;;;;;18.80;7.60;;;-0.60;99.90;;;;;;5051469;28;20180;-96
2021/03/22 07:12:38;;;;;;;13.80;4.67;;;-2.00;99.90;;;;;;5016252;28;20777;-94
2021/03/22 07:15:32;;;;;;;13.10;4.70;;;-0.30;99.90;;;;;;5030318;28;20181;-95
2021/03/22 07:18:19;;;;;;;8.17;3.57;;;-0.30;99.90;;;;;;5034755;28;20207;-94
2021/03/22 07:20:55;;;;;;;13.33;5.43;;;-0.30;99.90;;;;;;5035597;28;20249;-93
2021/03/22 07:23:24;;;;;;;14.40;6.00;;;-0.30;99.90;;;;;;5050522;28;20186;-94
2021/03/22 07:25:55;;;;;;;10.33;4.93;;;-0.10;99.90;;;;;;5050825;28;20238;-94
2021/03/22 07:29:15;;;;;;;14.80;4.93;;;0.80;99.90;;;;;;5049344;28;20349;-93
2021/03/22 07:32:04;;;;;;;8.63;4.50;;;-0.10;99.90;;;;;;4992643;28;20291;-93
2021/03/22 07:34:35;;;;;;;14.00;5.60;;;-0.10;99.90;;;;;;5033983;28;20191;-92
2021/03/22 07:37:16;;;;;;;9.23;4.10;;;0.20;99.90;;;;;;5046524;28;20218;-93
2021/03/22 07:39:47;;;;;;;10.63;4.70;;;0.40;99.90;;;;;;5048726;28;20168;-93
2021/03/22 07:42:35;;;;;;;9.37;4.77;;;0.10;99.90;;;;;;5034944;28;20262;-93
2021/03/22 07:45:16;;;;;;;10.67;4.50;;;0.10;99.90;;;;;;5036351;28;20182;-93
2021/03/22 07:47:57;;;;;;;9.10;3.83;;;0.00;99.90;;;;;;5049827;28;20188;-93
2021/03/22 07:50:47;;;;;;;10.27;4.90;;;0.20;99.90;;;;;;5034490;28;20195;-94
2021/03/22 07:53:36;;;;;;;10.97;5.60;;;0.40;99.90;;;;;;5026568;28;20187;-93
2021/03/22 07:56:19;;;;;;;9.07;4.07;;;1.20;99.90;;;;;;5025700;28;20196;-95
2021/03/22 07:58:48;;;;;;;14.03;6.80;;;1.10;99.90;;;;;;5038706;28;20219;-94
2021/03/22 08:01:45;;;;;;;25.17;7.53;;;0.60;99.90;;;;;;5037229;28;20195;-93
2021/03/22 08:04:13;;;;;;;16.83;6.13;;;0.50;99.90;;;;;;5037817;28;20224;-93
2021/03/22 08:07:14;;;;;;;12.07;4.93;;;0.60;99.90;;;;;;5036939;28;20250;-90
2021/03/22 08:09:50;;;;;;;10.33;4.00;;;0.80;99.90;;;;;;5035721;28;20286;-89
2021/03/22 08:12:40;;;;;;;11.10;4.30;;;0.90;99.90;;;;;;5037977;28;20164;-91
2021/03/22 08:15:30;;;;;;;11.50;5.53;;;1.00;99.90;;;;;;5021773;28;20177;-93
2021/03/22 08:18:14;;;;;;;10.27;4.50;;;1.20;99.90;;;;;;5019551;28;20241;-88
2021/03/22 08:20:51;;;;;;;11.67;4.83;;;1.40;99.90;;;;;;5031668;28;20242;-88
2021/03/22 08:23:24;;;;;;;24.10;9.07;;;2.20;99.90;;;;;;5029708;28;20200;-89
2021/03/22 08:25:51;;;;;;;9.10;4.80;;;1.50;99.90;;;;;;5057919;28;20185;-87
2021/03/22 08:28:39;;;;;;;10.80;4.40;;;3.30;99.90;;;;;;5034178;28;20246;-88
2021/03/22 08:31:19;;;;;;;15.60;5.83;;;2.70;99.90;;;;;;5036796;28;20183;-88
2021/03/22 08:33:55;;;;;;;9.90;4.30;;;3.20;99.90;;;;;;5042073;28;20188;-91
2021/03/22 08:36:46;;;;;;;6.97;3.40;;;1.90;99.90;;;;;;5025622;28;20172;-92
2021/03/22 08:39:33;;;;;;;10.50;4.07;;;1.90;99.90;;;;;;5039953;28;20188;-90
2021/03/22 08:42:02;;;;;;;14.57;4.73;;;2.10;99.90;;;;;;5023865;28;20249;-91
2021/03/22 08:45:05;;;;;;;17.33;5.17;;;2.30;99.90;;;;;;5032838;28;20178;-89
2021/03/22 08:48:09;;;;;;;9.77;3.43;;;2.30;99.90;;;;;;5029617;28;20260;-91
2021/03/22 08:50:37;;;;;;;7.70;3.50;;;2.40;99.90;;;;;;5057401;28;20199;-93
2021/03/22 08:53:16;;;;;;;8.87;3.70;;;3.00;99.90;;;;;;5037430;28;20283;-91
2021/03/22 08:55:47;;;;;;;13.90;6.40;;;2.30;99.90;;;;;;5033862;28;20177;-89
2021/03/22 08:58:29;;;;;;;15.90;6.63;;;2.10;98.70;;;;;;5033092;28;20206;-90
2021/03/22 09:01:18;;;;;;;6.23;2.93;;;2.40;99.90;;;;;;5033480;28;20692;-90
2021/03/22 09:03:47;;;;;;;15.47;5.37;;;2.60;97.80;;;;;;5023637;28;20260;-89
2021/03/22 09:06:25;;;;;;;6.67;3.60;;;2.70;99.80;;;;;;5033321;28;20208;-90
2021/03/22 09:08:53;;;;;;;18.43;6.23;;;2.60;96.10;;;;;;5034181;28;20184;-89
2021/03/22 09:11:25;;;;;;;10.07;4.43;;;2.90;96.00;;;;;;5034358;28;20182;-89
2021/03/22 09:14:27;;;;;;;6.03;2.80;;;3.00;94.90;;;;;;5033943;28;20215;-90
2021/03/22 09:16:54;;;;;;;6.43;2.97;;;2.50;94.10;;;;;;5034376;28;20516;-92
2021/03/22 09:19:20;;;;;;;5.93;3.30;;;3.30;96.00;;;;;;5034722;28;20181;-87
2021/03/22 09:21:48;;;;;;;8.47;3.70;;;3.10;93.40;;;;;;5035163;28;20199;-88
2021/03/22 09:24:42;;;;;;;4.60;2.30;;;3.70;96.20;;;;;;5035631;28;20259;-90
2021/03/22 09:27:14;;;;;;;7.83;2.73;;;2.70;94.00;;;;;;5034356;28;20639;-90
2021/03/22 09:29:46;;;;;;;5.20;2.40;;;2.80;93.30;;;;;;5035400;28;20169;-90
2021/03/22 09:32:28;;;;;;;6.53;2.90;;;2.80;94.70;;;;;;5034054;28;20226;-88
2021/03/22 09:35:07;;;;;;;6.87;3.47;;;3.00;93.80;;;;;;5035487;28;20168;-88
2021/03/22 09:37:59;;;;;;;5.47;2.60;;;3.00;93.80;;;;;;5033650;28;20314;-89
2021/03/22 09:40:26;;;;;;;6.77;2.93;;;3.00;93.00;;;;;;5034022;28;20577;-88
2021/03/22 09:43:14;;;;;;;7.23;4.00;;;2.90;87.60;;;;;;5033277;28;20181;-88
2021/03/22 09:45:55;;;;;;;5.47;2.20;;;3.10;93.90;;;;;;5034604;28;20161;-89
2021/03/22 09:48:25;;;;;;;8.47;3.63;;;3.90;88.70;;;;;;5033917;28;20588;-89
2021/03/22 09:51:10;;;;;;;7.53;3.67;;;3.50;91.20;;;;;;5034837;28;20171;-89
2021/03/22 09:53:56;;;;;;;8.83;3.37;;;3.70;89.40;;;;;;5034596;28;20196;-89
2021/03/22 09:56:50;;;;;;;11.63;4.60;;;3.70;81.10;;;;;;5033745;28;20208;-89
2021/03/22 09:59:29;;;;;;;14.57;6.50;;;3.70;81.10;;;;;;5034036;28;20286;-89
2021/03/22 10:01:58;;;;;;;9.47;4.53;;;3.70;77.60;;;;;;5033605;28;20615;-89
2021/03/22 10:04:29;;;;;;;5.63;2.30;;;4.30;76.50;;;;;;5034743;28;20217;-90
2021/03/22 10:07:22;;;;;;;8.37;3.70;;;3.50;76.20;;;;;;5033343;28;20593;-90
2021/03/22 10:10:00;;;;;;;6.57;2.27;;;3.50;75.00;;;;;;5030943;28;20283;-88
2021/03/22 10:12:39;;;;;;;9.10;4.77;;;5.20;76.60;;;;;;5030088;28;20180;-88
2021/03/22 10:15:13;;;;;;;9.23;4.10;;;3.90;72.20;;;;;;5030828;28;20234;-89
2021/03/22 10:17:52;;;;;;;5.67;2.50;;;4.00;73.50;;;;;;5032416;28;20210;-87
2021/03/22 10:20:23;;;;;;;3.43;2.13;;;3.70;69.50;;;;;;5026886;28;20244;-88
2021/03/22 10:22:58;;;;;;;6.63;3.13;;;3.90;68.60;;;;;;5048120;28;20187;-88
2021/03/22 10:25:34;;;;;;;5.30;2.00;;;4.10;69.50;;;;;;5032348;28;20173;-88
2021/03/22 10:28:06;;;;;;;5.37;2.60;;;4.40;65.80;;;;;;5028437;28;20648;-88
2021/03/22 10:30:33;;;;;;;5.07;2.63;;;4.70;62.80;;;;;;5028125;28;20267;-88
2021/03/22 10:33:05;;;;;;;8.97;4.00;;;4.40;59.10;;;;;;5021986;28;20183;-89
2021/03/22 10:36:21;;;;;;;7.27;3.53;;;4.40;61.30;;;;;;5031213;28;20185;-86
2021/03/22 10:38:51;;;;;;;6.23;2.37;;;4.70;60.00;;;;;;4955510;28;20265;-87
2021/03/22 10:41:43;;;;;;;4.60;2.10;;;5.10;61.80;;;;;;4955883;28;20183;-87
2021/03/22 10:44:14;;;;;;;6.47;3.33;;;5.20;58.30;;;;;;5000983;28;20243;-88
2021/03/22 10:46:42;;;;;;;6.90;3.30;;;5.30;61.60;;;;;;5023128;28;20188;-89
2021/03/22 10:49:28;;;;;;;12.30;4.03;;;5.10;57.30;;;;;;5031770;28;20177;-89
2021/03/22 10:51:56;;;;;;;4.33;2.83;;;4.90;59.10;;;;;;5024307;28;20188;-89
2021/03/22 10:54:43;;;;;;;5.03;2.20;;;4.80;55.90;;;;;;5012670;28;20204;-88
2021/03/22 10:57:36;;;;;;;9.77;2.87;;;4.60;56.30;;;;;;5029758;28;20794;-88
2021/03/22 11:00:31;;;;;;;4.77;2.43;;;4.70;57.50;;;;;;5019564;28;20179;-88
2021/03/22 11:03:01;;;;;;;8.80;3.33;;;5.00;55.70;;;;;;5023698;28;20183;-88
2021/03/22 11:05:30;;;;;;;5.03;2.47;;;5.40;59.30;;;;;;5008542;28;20748;-88
2021/03/22 11:08:03;;;;;;;6.07;2.50;;;5.30;53.40;;;;;;5021472;28;20192;-88
2021/03/22 11:10:30;;;;;;;5.87;3.20;;;4.90;53.40;;;;;;5031076;28;20630;-88
2021/03/22 11:12:57;;;;;;;12.80;4.93;;;5.00;55.90;;;;;;5046441;28;20278;-90
2021/03/22 11:15:35;;;;;;;13.40;5.87;;;5.30;56.20;;;;;;5021409;28;20184;-88
2021/03/22 11:18:04;;;;;;;6.43;4.07;;;5.50;55.20;;;;;;5021371;28;20211;-87
2021/03/22 11:20:30;;;;;;;5.50;2.50;;;5.70;57.70;;;;;;5029712;28;20275;-89
2021/03/22 11:23:18;;;;;;;5.57;2.60;;;5.60;53.70;;;;;;5026838;28;20195;-89
2021/03/22 11:25:44;;;;;;;8.67;1.67;;;5.40;57.60;;;;;;5025733;28;20210;-89
2021/03/22 11:28:26;;;;;;;5.37;1.30;;;5.40;54.80;;;;;;5030652;28;20192;-91
2021/03/22 11:30:52;;;;;;;4.23;1.53;;;5.40;54.20;;;;;;5024362;28;20195;-92
2021/03/22 11:33:25;;;;;;;4.60;1.80;;;5.20;54.90;;;;;;5029110;28;20653;-89
2021/03/22 11:36:14;;;;;;;7.47;2.97;;;5.10;54.10;;;;;;5022504;28;20235;-88
2021/03/22 11:38:52;;;;;;;4.57;2.10;;;4.80;56.60;;;;;;5022619;28;20224;-90
2021/03/22 11:41:26;;;;;;;4.73;2.60;;;5.00;55.50;;;;;;5027308;28;20187;-89
2021/03/22 11:44:04;;;;;;;5.70;2.20;;;5.30;55.60;;;;;;5043326;28;20184;-88
2021/03/22 11:46:30;;;;;;;4.57;1.97;;;5.30;55.00;;;;;;5021131;28;20638;-90
2021/03/22 11:48:57;;;;;;;4.93;1.70;;;5.30;55.30;;;;;;5023350;28;20255;-89
2021/03/22 11:51:23;;;;;;;4.67;1.87;;;5.30;55.40;;;;;;5023946;28;20211;-91
2021/03/22 11:53:59;;;;;;;4.43;1.80;;;5.30;56.30;;;;;;5022085;28;20185;-89
2021/03/22 11:56:28;;;;;;;4.97;2.60;;;5.60;57.80;;;;;;5019620;28;20209;-89
2021/03/22 11:59:23;;;;;;;4.67;1.80;;;5.50;56.40;;;;;;5026242;28;20553;-90
2021/03/22 12:02:10;;;;;;;4.50;2.20;;;5.30;55.70;;;;;;5029950;28;20191;-88
2021/03/22 12:04:36;;;;;;;13.37;2.23;;;5.10;56.50;;;;;;5029933;28;20685;-87
2021/03/22 12:07:12;;;;;;;5.23;2.53;;;5.00;57.70;;;;;;5026333;28;20246;-88
2021/03/22 12:09:42;;;;;;;9.77;2.43;;;5.10;57.40;;;;;;5030624;28;20238;-87
2021/03/22 12:12:13;;;;;;;3.07;1.63;;;5.10;58.40;;;;;;5034229;28;20199;-88
2021/03/22 12:14:39;;;;;;;4.13;1.63;;;5.20;58.00;;;;;;5025767;28;20173;-88
2021/03/22 12:17:15;;;;;;;6.83;3.10;;;5.50;57.60;;;;;;5023540;28;20199;-89
2021/03/22 12:19:42;;;;;;;3.77;2.10;;;5.50;58.90;;;;;;5029978;28;20255;-89
2021/03/22 12:22:19;;;;;;;4.20;2.33;;;5.40;56.80;;;;;;5023945;28;20232;-91
2021/03/22 12:24:45;;;;;;;4.47;2.30;;;5.40;57.50;;;;;;5022306;28;20172;-90
2021/03/22 12:27:12;;;;;;;3.97;1.83;;;5.10;57.80;;;;;;5024785;28;20237;-89
2021/03/22 12:29:39;;;;;;;6.67;2.07;;;5.00;58.50;;;;;;5020763;28;20271;-89
2021/03/22 12:32:05;;;;;;;6.23;2.13;;;5.00;59.60;;;;;;5024126;28;20299;-91
2021/03/22 12:34:31;;;;;;;3.33;2.20;;;5.30;58.60;;;;;;5030710;28;20189;-87
2021/03/22 12:36:57;;;;;;;3.70;1.87;;;5.20;58.40;;;;;;5017697;28;20191;-88
2021/03/22 12:39:29;;;;;;;6.03;2.10;;;5.10;58.70;;;;;;5028921;28;20188;-89
2021/03/22 12:42:01;;;;;;;5.07;2.20;;;4.90;59.30;;;;;;5032569;28;20169;-90
2021/03/22 12:44:27;;;;;;;11.33;4.47;;;4.80;60.10;;;;;;5030218;28;20184;-91
2021/03/22 12:46:53;;;;;;;3.90;2.30;;;4.60;59.70;;;;;;5031825;28;20172;-91
2021/03/22 12:49:20;;;;;;;11.97;5.03;;;4.40;60.20;;;;;;5024201;28;20264;-90
2021/03/22 12:51:45;;;;;;;9.30;4.20;;;4.50;64.30;;;;;;5027901;28;20199;-90
2021/03/22 12:54:11;;;;;;;7.47;3.90;;;4.80;64.40;;;;;;5032723;28;20590;-90
2021/03/22 12:56:37;;;;;;;8.90;3.50;;;5.30;63.20;;;;;;5032285;28;20184;-93
2021/03/22 12:59:04;;;;;;;3.43;2.13;;;5.90;63.90;;;;;;5034862;28;20205;-89
2021/03/22 13:01:30;;;;;;;6.63;2.00;;;6.20;60.90;;;;;;5034987;28;20251;-90
2021/03/22 13:03:55;;;;;;;4.83;2.80;;;6.00;61.30;;;;;;5031516;28;20243;-90
2021/03/22 13:06:23;;;;;;;9.57;2.77;;;5.80;64.90;;;;;;5013965;28;20641;-90
2021/03/22 13:08:50;;;;;;;5.73;2.70;;;5.60;66.50;;;;;;5033800;28;20291;-92
2021/03/22 13:11:22;;;;;;;8.10;2.87;;;5.30;64.70;;;;;;5034105;28;20534;-90
2021/03/22 13:13:48;;;;;;;4.77;2.70;;;5.00;67.30;;;;;;5034737;28;20167;-91
2021/03/22 13:16:19;;;;;;;8.33;3.17;;;4.90;68.20;;;;;;5034813;28;20181;-91
2021/03/22 13:18:44;;;;;;;8.80;2.93;;;4.80;69.70;;;;;;5035078;28;20196;-91
2021/03/22 13:21:14;;;;;;;13.77;3.70;;;4.70;70.80;;;;;;5034108;28;20640;-89